Time;durP1;ratioP1;P1;durP2;ratioP2;P2;SDS_P1;SDS_P2;PMS_P1;PMS_P2;Temp;Humidity;BMP_temperature;BMP_pressure;BME280_temperature;BME280_humidity;BME280_pressure;Samples;Min_cycle;Max_cycle;Signal;HPM_P1;HPM_P2
2024/01/28 00:01:05;;;;;;;9.10;5.97;;;;;;;-1.17;100.00;102315.63;5051602;28;20035;-67
2024/01/28 00:03:32;;;;;;;11.27;7.23;;;;;;;-1.27;100.00;102296.78;5051488;28;20068;-68
2024/01/28 00:05:58;;;;;;;8.27;6.00;;;;;;;-1.22;100.00;102309.72;5053874;28;20037;-67
2024/01/28 00:08:25;;;;;;;9.17;5.50;;;;;;;-1.23;100.00;102315.00;5050556;28;20644;-71
2024/01/28 00:10:52;;;;;;;7.23;5.00;;;;;;;-1.25;100.00;102309.81;5052163;28;20476;-66
2024/01/28 00:13:18;;;;;;;7.97;5.23;;;;;;;-1.22;100.00;102321.94;5051290;28;20639;-68
2024/01/28 00:15:44;;;;;;;7.30;4.80;;;;;;;-1.32;100.00;102303.09;5051981;28;20271;-65
2024/01/28 00:18:09;;;;;;;6.47;5.03;;;;;;;-1.22;100.00;102330.63;5051268;28;20390;-68
2024/01/28 00:20:36;;;;;;;5.23;4.40;;;;;;;-1.26;100.00;102323.78;5037833;28;20041;-67
2024/01/28 00:23:02;;;;;;;7.30;4.43;;;;;;;-1.34;100.00;102318.81;5063833;28;20085;-66
2024/01/28 00:25:27;;;;;;;6.63;4.60;;;;;;;-1.25;100.00;102330.72;5063244;28;20274;-69
2024/01/28 00:27:53;;;;;;;5.87;4.07;;;;;;;-1.23;100.00;102328.91;5061640;28;20275;-68
2024/01/28 00:30:18;;;;;;;6.47;5.07;;;;;;;-1.28;100.00;102325.59;5060541;28;20469;-67
2024/01/28 00:32:44;;;;;;;4.80;4.17;;;;;;;-1.43;100.00;102302.56;5060739;28;20041;-66
2024/01/28 00:35:09;;;;;;;4.80;4.10;;;;;;;-1.36;100.00;102338.06;5060505;28;20416;-68
2024/01/28 00:37:35;;;;;;;5.83;4.20;;;;;;;-1.62;100.00;102310.97;5060226;28;20029;-69
2024/01/28 00:40:01;;;;;;;4.57;3.77;;;;;;;-1.63;100.00;102316.25;5060518;28;20025;-67
2024/01/28 00:42:27;;;;;;;4.63;3.97;;;;;;;-1.60;100.00;102322.22;5060002;28;20033;-68
2024/01/28 00:44:52;;;;;;;6.50;4.07;;;;;;;-1.57;100.00;102316.06;5058851;28;20276;-69
2024/01/28 00:47:17;;;;;;;4.90;3.70;;;;;;;-1.76;100.00;102307.06;5090924;28;20056;-67
2024/01/28 00:49:43;;;;;;;5.60;4.10;;;;;;;-1.62;100.00;102323.19;5057339;28;20464;-66
2024/01/28 00:52:08;;;;;;;5.47;4.70;;;;;;;-1.61;100.00;102349.25;5059512;28;20040;-67
2024/01/28 00:54:34;;;;;;;5.70;4.63;;;;;;;-1.69;100.00;102330.34;5053753;28;20095;-66
2024/01/28 00:57:00;;;;;;;7.77;5.60;;;;;;;-1.58;100.00;102349.16;5055568;28;20063;-67
2024/01/28 00:59:25;;;;;;;5.00;4.30;;;;;;;-1.54;100.00;102338.63;5056927;28;20041;-66
2024/01/28 01:01:52;;;;;;;6.80;4.43;;;;;;;-1.45;100.00;102354.00;5038377;28;20549;-67
2024/01/28 01:04:17;;;;;;;6.50;4.87;;;;;;;-1.45;100.00;102349.63;5056167;28;20051;-71
2024/01/28 01:06:44;;;;;;;6.80;5.40;;;;;;;-1.44;100.00;102356.59;5055959;28;21011;-68
2024/01/28 01:09:10;;;;;;;7.00;5.20;;;;;;;-1.51;100.00;102356.81;5056236;28;20059;-67
2024/01/28 01:11:35;;;;;;;5.33;4.50;;;;;;;-1.78;100.00;102314.09;5055286;28;20283;-67
2024/01/28 01:14:01;;;;;;;5.93;5.30;;;;;;;-2.00;100.00;102293.84;5055624;28;20155;-67
2024/01/28 01:16:27;;;;;;;7.03;5.43;;;;;;;-1.97;100.00;102305.94;5058086;28;20067;-67
2024/01/28 01:18:54;;;;;;;13.93;7.17;;;;;;;-2.13;100.00;102279.41;5041567;28;20141;-67
2024/01/28 01:21:19;;;;;;;8.37;6.00;;;;;;;-1.68;100.00;102347.75;5056555;28;20389;-65
2024/01/28 01:23:45;;;;;;;6.57;5.70;;;;;;;-1.75;100.00;102340.97;5055918;28;20317;-66
2024/01/28 01:26:15;;;;;;;7.03;6.03;;;;;;;-1.78;100.00;102335.81;5067988;28;20045;-67
2024/01/28 01:28:41;;;;;;;7.03;6.13;;;;;;;-1.79;100.00;102343.72;5062925;28;20313;-68
2024/01/28 01:31:06;;;;;;;6.97;6.27;;;;;;;-1.89;100.00;102345.75;5055191;28;20339;-67
2024/01/28 01:33:32;;;;;;;9.03;6.27;;;;;;;-2.00;100.00;102332.16;5053345;28;20554;-67
2024/01/28 01:35:57;;;;;;;6.97;6.07;;;;;;;-2.06;100.00;102319.25;5054979;28;20041;-66
2024/01/28 01:38:23;;;;;;;6.33;5.70;;;;;;;-2.29;100.00;102281.63;5054394;28;20072;-67
2024/01/28 01:40:49;;;;;;;8.33;6.70;;;;;;;-1.83;100.00;102345.56;5054618;28;20119;-67
2024/01/28 01:43:15;;;;;;;7.50;6.00;;;;;;;-1.79;100.00;102354.16;5054583;28;20037;-65
2024/01/28 01:45:44;;;;;;;6.90;6.13;;;;;;;-1.88;100.00;102352.69;5054483;28;20037;-67
2024/01/28 01:48:11;;;;;;;8.55;6.50;;;;;;;-1.88;100.00;102373.56;5052907;28;20774;-68
2024/01/28 01:50:41;;;;;;;7.67;5.80;;;;;;;-1.82;100.00;102378.59;5052826;28;20060;-66
2024/01/28 01:53:09;;;;;;;7.27;6.50;;;;;;;-1.88;100.00;102373.56;5053713;28;20301;-67
2024/01/28 01:55:37;;;;;;;10.57;6.57;;;;;;;-1.93;100.00;102372.84;5054018;28;20743;-68
2024/01/28 01:58:04;;;;;;;7.77;6.43;;;;;;;-1.97;100.00;102373.84;5053111;28;20800;-66
2024/01/28 02:00:31;;;;;;;6.60;5.73;;;;;;;-2.02;100.00;102389.63;5052336;28;20298;-67
2024/01/28 02:02:57;;;;;;;7.97;5.53;;;;;;;-2.08;100.00;102379.34;5035689;28;20639;-68
2024/01/28 02:05:22;;;;;;;7.50;6.70;;;;;;;-2.21;100.00;102357.94;5053580;28;20263;-68
2024/01/28 02:07:48;;;;;;;8.00;6.37;;;;;;;-2.09;100.00;102377.63;5052877;28;20045;-66
2024/01/28 02:10:14;;;;;;;7.90;6.43;;;;;;;-2.10;100.00;102349.81;5086038;28;20041;-66
2024/01/28 02:12:42;;;;;;;8.80;6.30;;;;;;;-1.98;100.00;102369.53;5053999;28;20083;-68
2024/01/28 02:15:09;;;;;;;7.43;6.40;;;;;;;-1.97;100.00;102366.88;5053647;28;20264;-67
2024/01/28 02:17:37;;;;;;;7.20;5.97;;;;;;;-2.12;100.00;102330.72;5053262;28;20131;-69
2024/01/28 02:20:04;;;;;;;8.20;6.77;;;;;;;-1.99;100.00;102336.47;5053607;28;20291;-67
2024/01/28 02:22:29;;;;;;;9.87;7.10;;;;;;;-2.00;100.00;102335.63;5053556;28;20283;-66
2024/01/28 02:24:55;;;;;;;10.17;8.07;;;;;;;-1.94;100.00;102335.44;5059971;28;20278;-66
2024/01/28 02:27:20;;;;;;;10.23;6.90;;;;;;;-2.07;100.00;102307.09;5056541;28;20033;-65
2024/01/28 02:29:46;;;;;;;9.53;6.83;;;;;;;-2.00;100.00;102311.28;5053839;28;20440;-68
2024/01/28 02:32:16;;;;;;;7.67;6.20;;;;;;;-1.73;100.00;102354.00;5053329;28;20408;-65
2024/01/28 02:34:42;;;;;;;7.67;5.80;;;;;;;-1.69;100.00;102351.25;5053116;28;20037;-71
2024/01/28 02:37:08;;;;;;;8.43;6.80;;;;;;;-1.63;100.00;102352.81;5052903;28;20260;-67
2024/01/28 02:39:33;;;;;;;8.03;6.83;;;;;;;-1.67;100.00;102354.66;5053043;28;20469;-67
2024/01/28 02:41:59;;;;;;;7.17;6.00;;;;;;;-1.76;100.00;102349.69;5052984;28;20358;-66
2024/01/28 02:44:24;;;;;;;9.47;7.60;;;;;;;-1.85;100.00;102329.09;5053269;28;20047;-67
2024/01/28 02:46:50;;;;;;;9.13;6.87;;;;;;;-1.83;100.00;102332.50;5053066;28;20037;-66
2024/01/28 02:49:16;;;;;;;10.07;6.83;;;;;;;-1.75;100.00;102330.50;5053114;28;20037;-68
2024/01/28 02:51:45;;;;;;;8.60;6.70;;;;;;;-1.68;100.00;102328.59;5053002;28;20083;-68
2024/01/28 02:54:11;;;;;;;8.85;6.80;;;;;;;-1.69;100.00;102330.34;5053217;28;20683;-67
2024/01/28 02:56:36;;;;;;;8.60;7.00;;;;;;;-1.96;100.00;102268.50;5052947;28;20086;-66
2024/01/28 02:59:03;;;;;;;9.60;7.27;;;;;;;-1.53;100.00;102340.31;5034714;28;20264;-69
2024/01/28 03:01:29;;;;;;;8.27;6.30;;;;;;;-1.57;100.00;102340.41;5053631;28;20033;-65
2024/01/28 03:03:55;;;;;;;8.30;6.77;;;;;;;-1.60;100.00;102337.06;5052405;28;20255;-67
2024/01/28 03:06:20;;;;;;;11.73;6.77;;;;;;;-1.63;100.00;102330.16;5053068;28;20321;-67
2024/01/28 03:08:46;;;;;;;12.07;8.10;;;;;;;-1.63;100.00;102334.53;5051912;28;20060;-68
2024/01/28 03:11:12;;;;;;;7.90;6.50;;;;;;;-1.74;100.00;102313.94;5052829;28;20120;-69
2024/01/28 03:13:37;;;;;;;9.00;6.83;;;;;;;-1.61;100.00;102328.34;5052671;28;20048;-67
2024/01/28 03:16:03;;;;;;;10.23;7.03;;;;;;;-1.57;100.00;102335.19;5052849;28;20037;-66
2024/01/28 03:18:29;;;;;;;8.57;6.50;;;;;;;-1.79;100.00;102288.88;5053841;28;20064;-66
2024/01/28 03:20:54;;;;;;;7.90;6.50;;;;;;;-1.51;100.00;102335.91;5054545;28;20976;-67
2024/01/28 03:23:20;;;;;;;9.33;7.50;;;;;;;-2.29;100.00;102207.72;5054369;28;20510;-67
2024/01/28 03:25:46;;;;;;;10.40;6.73;;;;;;;-1.57;100.00;102326.50;5051642;28;20033;-65
2024/01/28 03:28:12;;;;;;;8.77;6.50;;;;;;;-1.37;100.00;102360.72;5034359;28;20071;-68
2024/01/28 03:30:37;;;;;;;8.37;7.13;;;;;;;-1.51;100.00;102333.28;5052190;28;20414;-68
2024/01/28 03:33:03;;;;;;;8.80;6.63;;;;;;;-1.35;100.00;102360.69;5051238;28;20045;-65
2024/01/28 03:35:28;;;;;;;9.10;7.17;;;;;;;-1.36;100.00;102358.97;5052104;28;20480;-69
2024/01/28 03:37:54;;;;;;;9.57;7.03;;;;;;;-1.49;100.00;102334.94;5052202;28;20032;-69
2024/01/28 03:40:20;;;;;;;10.60;7.60;;;;;;;-1.42;100.00;102338.25;5050868;28;20427;-69
2024/01/28 03:42:45;;;;;;;9.93;7.10;;;;;;;-1.50;100.00;102319.31;5051884;28;20271;-67
2024/01/28 03:45:11;;;;;;;8.10;6.47;;;;;;;-1.69;100.00;102304.22;5051813;28;20044;-67
2024/01/28 03:47:37;;;;;;;7.70;6.03;;;;;;;-1.38;100.00;102350.31;5052390;28;20503;-66
2024/01/28 03:50:05;;;;;;;8.87;6.17;;;;;;;-1.49;100.00;102332.34;5052615;28;20048;-66
2024/01/28 03:52:31;;;;;;;9.65;6.68;;;;;;;-1.68;100.00;102303.31;5051433;28;20033;-66
2024/01/28 03:54:57;;;;;;;10.67;8.63;;;;;;;-1.61;100.00;102324.88;5051358;28;20090;-67
2024/01/28 03:57:22;;;;;;;9.57;6.13;;;;;;;-1.57;100.00;102335.19;5051635;28;20083;-66
2024/01/28 03:59:48;;;;;;;8.90;6.23;;;;;;;-1.39;100.00;102357.31;5051558;28;20039;-66
2024/01/28 04:02:16;;;;;;;7.43;5.83;;;;;;;-1.40;100.00;102363.44;5051371;28;20037;-66
2024/01/28 04:04:41;;;;;;;8.23;7.15;;;;;;;-1.39;100.00;102349.47;5052468;28;20039;-66
2024/01/28 04:07:07;;;;;;;10.83;8.13;;;;;;;-1.59;100.00;102316.09;5051609;28;20037;-67
2024/01/28 04:09:33;;;;;;;8.87;6.23;;;;;;;-1.40;100.00;102344.28;5051632;28;20041;-67
2024/01/28 04:12:01;;;;;;;8.13;6.93;;;;;;;-1.38;100.00;102350.31;5051666;28;20036;-68
2024/01/28 04:14:27;;;;;;;8.68;6.18;;;;;;;-1.54;100.00;102312.50;5051042;28;20037;-69
2024/01/28 04:16:52;;;;;;;8.57;6.70;;;;;;;-1.39;100.00;102354.69;5049898;28;20044;-67
2024/01/28 04:19:19;;;;;;;7.80;6.27;;;;;;;-1.52;100.00;102332.44;5050350;28;20049;-66
2024/01/28 04:21:45;;;;;;;8.63;7.10;;;;;;;-1.38;100.00;102351.19;5051526;28;20040;-66
2024/01/28 04:24:10;;;;;;;8.93;6.40;;;;;;;-1.35;100.00;102352.84;5050099;28;20334;-65
2024/01/28 04:26:36;;;;;;;7.67;5.73;;;;;;;-1.46;100.00;102315.72;5051681;28;20033;-67
2024/01/28 04:29:01;;;;;;;9.97;6.67;;;;;;;-1.38;100.00;102332.03;5052126;28;20447;-66
2024/01/28 04:31:27;;;;;;;8.20;5.77;;;;;;;-1.43;100.00;102318.25;5053484;28;20033;-67
2024/01/28 04:33:54;;;;;;;7.30;5.40;;;;;;;-1.36;100.00;102343.28;5037795;28;20033;-66
2024/01/28 04:36:19;;;;;;;8.07;5.97;;;;;;;-1.43;100.00;102326.94;5055809;28;20059;-65
2024/01/28 04:38:45;;;;;;;6.63;5.70;;;;;;;-1.40;100.00;102329.47;5055288;28;20743;-67
2024/01/28 04:41:10;;;;;;;7.43;6.13;;;;;;;-1.44;100.00;102324.38;5055113;28;20485;-69
2024/01/28 04:43:38;;;;;;;9.37;6.43;;;;;;;-1.32;100.00;102347.50;5055033;28;20053;-67
2024/01/28 04:46:04;;;;;;;8.43;5.70;;;;;;;-1.48;100.00;102323.59;5054933;28;20037;-67
2024/01/28 04:48:29;;;;;;;8.07;5.77;;;;;;;-1.47;100.00;102332.28;5054128;28;20375;-68
2024/01/28 04:50:55;;;;;;;8.40;6.33;;;;;;;-1.54;100.00;102338.63;5054551;28;20041;-67
2024/01/28 04:53:21;;;;;;;6.50;5.13;;;;;;;-1.44;100.00;102360.97;5055632;28;20041;-65
2024/01/28 04:55:46;;;;;;;7.17;5.90;;;;;;;-1.46;100.00;102366.22;5054992;28;20044;-68
2024/01/28 04:58:12;;;;;;;9.17;5.90;;;;;;;-1.46;100.00;102368.81;5054035;28;20041;-66
2024/01/28 05:00:37;;;;;;;6.87;4.93;;;;;;;-1.46;100.00;102376.66;5054959;28;20071;-65
2024/01/28 05:03:03;;;;;;;6.23;5.33;;;;;;;-1.51;100.00;102362.03;5055175;28;20044;-67
2024/01/28 05:05:29;;;;;;;7.70;6.13;;;;;;;-1.54;100.00;102355.16;5053530;28;20032;-67
2024/01/28 05:07:54;;;;;;;7.10;5.40;;;;;;;-1.38;100.00;102381.69;5055207;28;20032;-68
2024/01/28 05:10:20;;;;;;;7.17;5.53;;;;;;;-1.58;100.00;102337.84;5053681;28;20037;-65
2024/01/28 05:12:45;;;;;;;7.23;5.43;;;;;;;-1.39;100.00;102367.75;5054637;28;20096;-67
2024/01/28 05:15:16;;;;;;;6.23;5.00;;;;;;;-1.52;100.00;102344.66;5055164;28;20037;-66
2024/01/28 05:17:42;;;;;;;6.77;4.80;;;;;;;-2.25;100.00;102225.84;5055930;28;20075;-67
2024/01/28 05:20:12;;;;;;;7.10;5.07;;;;;;;-1.51;100.00;102351.59;5055558;28;20332;-68
2024/01/28 05:22:38;;;;;;;6.97;5.10;;;;;;;-1.47;100.00;102371.50;5055771;28;20287;-66
2024/01/28 05:25:04;;;;;;;7.23;5.33;;;;;;;-1.54;100.00;102360.38;5053777;28;20307;-66
2024/01/28 05:27:30;;;;;;;6.43;5.47;;;;;;;-1.41;100.00;102376.56;5054912;28;20270;-66
2024/01/28 05:29:58;;;;;;;6.57;4.97;;;;;;;-1.41;100.00;102377.41;5053810;28;20267;-67
2024/01/28 05:32:25;;;;;;;5.47;4.68;;;;;;;-1.44;100.00;102371.44;5036560;28;20052;-68
2024/01/28 05:34:51;;;;;;;7.90;5.90;;;;;;;-1.38;100.00;102381.69;5053589;28;20128;-69
2024/01/28 05:37:16;;;;;;;7.50;5.60;;;;;;;-1.50;100.00;102359.38;5054449;28;20265;-67
2024/01/28 05:39:42;;;;;;;7.30;5.37;;;;;;;-1.40;100.00;102388.72;5054982;28;20416;-65
2024/01/28 05:42:07;;;;;;;7.13;5.00;;;;;;;-1.51;100.00;102373.34;5054072;28;20037;-65
2024/01/28 05:44:33;;;;;;;7.23;5.17;;;;;;;-1.53;100.00;102374.28;5054087;28;20465;-68
2024/01/28 05:46:59;;;;;;;6.87;5.60;;;;;;;-1.80;100.00;102328.94;5055313;28;20041;-67
2024/01/28 05:49:24;;;;;;;9.73;6.43;;;;;;;-2.37;100.00;102231.41;5053052;28;20035;-68
2024/01/28 05:51:50;;;;;;;7.13;4.93;;;;;;;-1.51;100.00;102386.41;5054103;28;20041;-68
2024/01/28 05:54:15;;;;;;;7.43;5.37;;;;;;;-1.51;100.00;102382.94;5054355;28;20067;-67
2024/01/28 05:56:41;;;;;;;7.03;4.83;;;;;;;-1.52;100.00;102389.06;5053632;28;20037;-65
2024/01/28 05:59:06;;;;;;;7.67;5.50;;;;;;;-1.68;100.00;102360.78;5053707;28;20377;-68
2024/01/28 06:01:32;;;;;;;6.10;4.93;;;;;;;-1.47;100.00;102384.56;5052520;28;20119;-66
2024/01/28 06:03:57;;;;;;;7.07;5.40;;;;;;;-1.61;100.00;102370.16;5052288;28;20086;-66
2024/01/28 06:06:23;;;;;;;7.27;5.00;;;;;;;-1.47;100.00;102397.63;5052220;28;20544;-67
2024/01/28 06:08:48;;;;;;;6.53;5.13;;;;;;;-1.43;100.00;102399.25;5053227;28;20043;-67
2024/01/28 06:11:14;;;;;;;5.53;4.60;;;;;;;-1.45;100.00;102403.66;5052933;28;20409;-68
2024/01/28 06:13:40;;;;;;;7.20;5.63;;;;;;;-1.59;100.00;102391.88;5036454;28;20047;-67
2024/01/28 06:16:07;;;;;;;8.80;6.67;;;;;;;-1.53;100.00;102408.25;5054456;28;20029;-66
2024/01/28 06:18:43;;;;;;;7.50;6.43;;;;;;;-1.96;100.00;102347.69;5051388;28;20048;-67
2024/01/28 06:21:11;;;;;;;9.87;6.00;;;;;;;-1.54;100.00;102409.16;5053141;28;20763;-67
2024/01/28 06:23:37;;;;;;;8.07;5.78;;;;;;;-1.45;100.00;102416.72;5051470;28;20354;-66
2024/01/28 06:26:03;;;;;;;7.47;5.87;;;;;;;-1.63;100.00;102385.03;5052847;28;20128;-67
2024/01/28 06:28:28;;;;;;;8.47;7.27;;;;;;;-1.57;100.00;102382.22;5052026;28;20028;-67
2024/01/28 06:30:54;;;;;;;7.43;6.00;;;;;;;-1.27;100.00;102418.78;5052827;28;20275;-65
2024/01/28 06:33:20;;;;;;;8.97;6.27;;;;;;;-1.25;100.00;102414.38;5052462;28;20491;-67
2024/01/28 06:35:45;;;;;;;7.40;5.73;;;;;;;-1.35;100.00;102411.19;5051029;28;20472;-68
2024/01/28 06:38:11;;;;;;;7.17;5.27;;;;;;;-1.23;100.00;102440.47;5052415;28;20037;-67
2024/01/28 06:40:39;;;;;;;7.07;6.37;;;;;;;-1.41;100.00;102418.38;5051521;28;20120;-66
2024/01/28 06:43:04;;;;;;;7.27;5.80;;;;;;;-1.92;100.00;102348.44;5051824;28;20033;-67
2024/01/28 06:45:30;;;;;;;9.10;6.63;;;;;;;-1.46;100.00;102422.84;5051547;28;20260;-67
2024/01/28 06:47:56;;;;;;;7.17;5.80;;;;;;;-1.35;100.00;102444.31;5052177;28;20116;-68
2024/01/28 06:50:21;;;;;;;7.83;5.23;;;;;;;-1.33;100.00;102432.91;5034456;28;20029;-66
2024/01/28 06:52:48;;;;;;;6.53;5.43;;;;;;;-1.36;100.00;102411.25;5053004;28;20123;-67
2024/01/28 06:55:13;;;;;;;8.23;6.47;;;;;;;-1.28;100.00;102411.84;5051797;28;20037;-67
2024/01/28 06:57:39;;;;;;;7.20;5.47;;;;;;;-1.19;100.00;102422.03;5052108;28;20330;-67
2024/01/28 07:00:10;;;;;;;6.60;5.07;;;;;;;-1.25;100.00;102409.16;5051768;28;20064;-68
2024/01/28 07:02:38;;;;;;;6.87;4.70;;;;;;;-1.12;100.00;102441.88;5051237;28;20029;-66
2024/01/28 07:05:03;;;;;;;8.17;5.53;;;;;;;-1.30;100.00;102413.66;5052631;28;20278;-67
2024/01/28 07:07:29;;;;;;;6.50;5.13;;;;;;;-1.33;100.00;102418.97;5033347;28;20282;-67
2024/01/28 07:09:56;;;;;;;7.50;4.97;;;;;;;-1.32;100.00;102420.69;5051820;28;20373;-68
2024/01/28 07:12:22;;;;;;;7.47;5.07;;;;;;;-1.27;100.00;102429.25;5051993;28;20036;-68
2024/01/28 07:14:47;;;;;;;7.47;4.60;;;;;;;-1.50;100.00;102395.94;5052744;28;20290;-68
2024/01/28 07:17:13;;;;;;;6.40;4.80;;;;;;;-1.43;100.00;102410.56;5051891;28;20039;-66
2024/01/28 07:19:41;;;;;;;9.47;6.40;;;;;;;-1.18;100.00;102455.09;5052222;28;20056;-68
2024/01/28 07:22:11;;;;;;;6.53;5.28;;;;;;;-1.16;100.00;102466.38;5051184;28;20036;-67
2024/01/28 07:24:38;;;;;;;6.47;5.23;;;;;;;-1.13;100.00;102476.78;5043609;28;20381;-66
2024/01/28 07:27:04;;;;;;;7.07;5.53;;;;;;;-1.07;100.00;102481.81;5050150;28;20307;-68
2024/01/28 07:29:29;;;;;;;8.50;5.50;;;;;;;-1.10;100.00;102479.28;5051013;28;20295;-67
2024/01/28 07:31:56;;;;;;;7.53;6.20;;;;;;;-1.20;100.00;102471.75;5044203;28;20295;-69
2024/01/28 07:34:23;;;;;;;7.00;5.93;;;;;;;-1.12;100.00;102473.25;5049370;28;20131;-70
2024/01/28 07:36:50;;;;;;;9.27;6.53;;;;;;;-1.09;100.00;102475.78;5046825;28;20283;-74
2024/01/28 07:39:15;;;;;;;8.83;5.80;;;;;;;-1.09;100.00;102467.06;5048755;28;20341;-66
2024/01/28 07:41:41;;;;;;;7.87;6.00;;;;;;;-1.12;100.00;102465.41;5051270;28;20286;-66
2024/01/28 07:44:08;;;;;;;9.47;6.03;;;;;;;-1.10;100.00;102475.81;5041885;28;20502;-67
2024/01/28 07:46:34;;;;;;;10.40;6.57;;;;;;;-2.22;100.00;102288.38;5048290;28;20536;-69
2024/01/28 07:48:59;;;;;;;10.20;7.37;;;;;;;-1.16;100.00;102466.38;5048955;28;20405;-67
2024/01/28 07:51:28;;;;;;;8.97;5.87;;;;;;;-1.23;100.00;102457.00;5051099;28;20087;-69
2024/01/28 07:53:53;;;;;;;9.63;7.28;;;;;;;-1.31;100.00;102440.69;5046135;28;20057;-65
2024/01/28 07:56:19;;;;;;;11.27;7.20;;;;;;;-1.38;100.00;102426.13;5047739;28;20077;-67
2024/01/28 07:58:44;;;;;;;9.97;6.87;;;;;;;-1.07;100.00;102460.03;5047701;28;20065;-67
2024/01/28 08:01:11;;;;;;;10.47;7.23;;;;;;;-1.50;100.00;102385.50;5042577;28;20110;-66
2024/01/28 08:03:36;;;;;;;9.90;6.93;;;;;;;-1.12;100.00;102447.09;5046995;28;20504;-62
2024/01/28 08:06:04;;;;;;;8.07;6.77;;;;;;;-1.17;100.00;102456.81;5044121;28;20578;-68
2024/01/28 08:08:32;;;;;;;9.10;7.23;;;;;;;-1.17;100.00;102464.66;5049416;28;20090;-68
2024/01/28 08:10:57;;;;;;;11.73;6.93;;;;;;;-1.17;100.00;102454.19;5046709;28;20283;-65
2024/01/28 08:13:23;;;;;;;11.50;7.93;;;;;;;-1.16;100.00;102455.91;5042658;28;20511;-69
2024/01/28 08:15:49;;;;;;;13.63;7.93;;;;;;;-1.22;100.00;102461.34;5049917;28;20071;-66
2024/01/28 08:18:16;;;;;;;11.97;8.10;;;;;;;-1.22;100.00;102450.03;5048808;28;20279;-67
2024/01/28 08:20:41;;;;;;;14.17;7.63;;;;;;;-1.01;100.00;102473.78;5048867;28;20052;-67
2024/01/28 08:23:07;;;;;;;12.70;7.97;;;;;;;-0.89;100.00;102479.50;5045509;28;20280;-69
2024/01/28 08:25:32;;;;;;;16.43;8.70;;;;;;;-0.94;100.00;102466.59;5047689;28;20037;-70
2024/01/28 08:27:58;;;;;;;12.57;8.60;;;;;;;-0.91;100.00;102469.09;5030759;28;20077;-69
2024/01/28 08:30:23;;;;;;;12.57;8.93;;;;;;;-1.02;100.00;102443.28;5046446;28;20033;-66
2024/01/28 08:32:50;;;;;;;14.10;8.87;;;;;;;-0.95;100.00;102460.50;5031834;28;20042;-73
2024/01/28 08:35:17;;;;;;;15.30;8.20;;;;;;;-0.97;100.00;102459.69;5045765;28;20082;-74
2024/01/28 08:37:42;;;;;;;14.60;8.83;;;;;;;-0.97;100.00;102448.38;5048593;28;20293;-74
2024/01/28 08:40:08;;;;;;;13.83;8.97;;;;;;;-1.05;100.00;102453.00;5033200;28;20280;-69
2024/01/28 08:42:34;;;;;;;14.67;9.17;;;;;;;-1.37;100.00;102407.78;5045010;28;20087;-71
2024/01/28 08:45:00;;;;;;;20.23;11.17;;;;;;;-1.02;100.00;102469.44;5038531;28;20497;-73
2024/01/28 08:47:25;;;;;;;20.80;10.13;;;;;;;-0.95;100.00;102465.72;5043685;28;20057;-70
2024/01/28 08:49:51;;;;;;;17.67;10.90;;;;;;;-0.79;100.00;102466.13;5038505;28;20076;-72
2024/01/28 08:52:17;;;;;;;13.27;9.17;;;;;;;-0.70;100.00;102464.97;5050054;28;20068;-68
2024/01/28 08:54:45;;;;;;;16.80;9.47;;;;;;;-0.52;100.00;102477.47;5046652;28;20124;-73
2024/01/28 08:57:11;;;;;;;17.17;10.40;;;;;;;-0.54;100.00;102468.81;5027725;28;20520;-73
2024/01/28 08:59:37;;;;;;;14.40;9.90;;;;;;;-0.64;100.00;102460.38;5031371;28;20045;-69
2024/01/28 09:02:03;;;;;;;18.93;9.33;;;;;;;-0.52;100.00;102480.09;5032384;28;20651;-72
2024/01/28 09:04:29;;;;;;;15.80;8.90;;;;;;;-0.42;100.00;102497.19;5034689;28;20459;-71
2024/01/28 09:06:55;;;;;;;14.77;9.63;;;;;;;-0.36;100.00;102497.00;5042422;28;20374;-69
2024/01/28 09:09:21;;;;;;;14.00;9.77;;;;;;;-0.42;100.00;102478.88;5042708;28;20114;-70
2024/01/28 09:11:47;;;;;;;12.73;7.77;;;;;;;-0.43;100.00;102486.78;5051067;28;20036;-72
2024/01/28 09:14:12;;;;;;;15.13;8.73;;;;;;;-0.50;100.00;102467.81;5040864;28;20287;-69
2024/01/28 09:16:38;;;;;;;12.17;8.73;;;;;;;-0.28;100.00;102495.91;5030538;28;20556;-71
2024/01/28 09:19:06;;;;;;;10.93;6.90;;;;;;;-0.41;100.00;102485.81;5044510;28;20061;-70
2024/01/28 09:21:31;;;;;;;9.95;7.15;;;;;;;-0.39;100.00;102478.75;5032738;28;20045;-72
2024/01/28 09:23:58;;;;;;;10.60;7.07;;;;;;;-0.24;100.00;102479.19;5043563;28;20056;-71
2024/01/28 09:26:26;;;;;;;12.88;7.22;;;;;;;-0.20;100.00;102458.06;5051411;28;20075;-68
2024/01/28 09:28:52;;;;;;;11.27;8.13;;;;;;;-0.13;100.00;102446.47;5049896;28;20482;-70
2024/01/28 09:31:17;;;;;;;10.97;6.67;;;;;;;0.10;100.00;102477.13;5047759;28;20473;-72
2024/01/28 09:33:43;;;;;;;12.37;7.77;;;;;;;0.13;100.00;102458.66;5033617;28;20388;-72
2024/01/28 09:36:09;;;;;;;12.70;7.80;;;;;;;0.30;100.00;102477.28;5055031;28;20032;-71
2024/01/28 09:38:34;;;;;;;9.67;7.07;;;;;;;0.03;100.00;102418.00;5046781;28;20119;-73
2024/01/28 09:41:24;;;;;;;11.27;7.20;;;;;;;0.41;100.00;102483.88;5046279;28;20754;-69
2024/01/28 09:43:50;;;;;;;10.00;7.87;;;;;;;0.39;100.00;102488.34;5039765;28;20055;-71
2024/01/28 09:46:16;;;;;;;11.60;6.37;;;;;;;0.13;100.00;102458.66;5048104;28;20373;-71
2024/01/28 09:48:45;;;;;;;13.23;8.00;;;;;;;0.15;100.00;102469.94;5053283;28;20060;-68
2024/01/28 09:51:12;;;;;;;9.57;5.17;;;;;;;0.21;100.00;102482.81;5060845;28;20267;-69
2024/01/28 09:53:38;;;;;;;7.83;5.20;;;;;;;0.30;100.00;102500.88;5063766;28;20349;-71
2024/01/28 09:56:04;;;;;;;10.20;6.90;;;;;;;0.12;100.00;102488.41;5061753;28;20292;-71
2024/01/28 09:58:30;;;;;;;9.23;6.33;;;;;;;-0.27;100.00;102426.94;5050094;28;20045;-71
2024/01/28 10:00:56;;;;;;;6.30;4.93;;;;;;;-0.04;100.00;102492.44;5058488;28;20302;-65
2024/01/28 10:03:22;;;;;;;7.30;5.53;;;;;;;0.06;100.00;102509.56;5054141;28;20033;-70
2024/01/28 10:05:48;;;;;;;7.97;5.27;;;;;;;-0.10;100.00;102479.56;5060274;28;20294;-72
2024/01/28 10:08:14;;;;;;;6.73;5.00;;;;;;;-0.07;100.00;102479.44;5056931;28;20283;-70
2024/01/28 10:10:40;;;;;;;8.17;5.33;;;;;;;0.10;100.00;102511.16;5039604;28;20041;-70
2024/01/28 10:13:06;;;;;;;11.33;6.33;;;;;;;-0.06;100.00;102476.78;5041985;28;20287;-72
2024/01/28 10:15:32;;;;;;;9.20;5.67;;;;;;;0.10;100.00;102495.44;5047711;28;20624;-72
2024/01/28 10:17:58;;;;;;;7.40;5.30;;;;;;;0.12;100.00;102506.72;5047626;28;20056;-71
2024/01/28 10:20:25;;;;;;;8.43;5.73;;;;;;;0.11;100.00;102484.06;5045385;28;20041;-68
2024/01/28 10:22:53;;;;;;;6.50;4.77;;;;;;;0.27;100.00;102507.94;5053444;28;20287;-70
2024/01/28 10:25:19;;;;;;;7.20;5.23;;;;;;;0.31;100.00;102501.72;5036792;28;20291;-69
2024/01/28 10:27:46;;;;;;;6.77;5.03;;;;;;;0.34;100.00;102513.84;5048194;28;20366;-71
2024/01/28 10:30:13;;;;;;;6.40;4.93;;;;;;;0.26;100.00;102504.47;5041651;28;20295;-69
2024/01/28 10:32:39;;;;;;;6.60;4.90;;;;;;;0.33;100.00;102509.53;5047402;28;20307;-69
2024/01/28 10:35:09;;;;;;;8.97;6.43;;;;;;;0.11;100.00;102491.94;5045128;28;20655;-70
2024/01/28 10:37:35;;;;;;;7.57;5.37;;;;;;;0.25;100.00;102517.63;5052434;28;20041;-70
2024/01/28 10:40:05;;;;;;;6.03;4.47;;;;;;;0.34;100.00;102500.75;5049597;28;21194;-72
2024/01/28 10:42:41;;;;;;;7.10;4.87;;;;;;;0.32;100.00;102505.19;5050592;28;20291;-72
2024/01/28 10:45:11;;;;;;;7.07;4.43;;;;;;;0.35;100.00;102515.56;5051188;28;20271;-73
2024/01/28 10:47:41;;;;;;;7.80;5.83;;;;;;;0.37;100.00;102509.34;5048885;28;20745;-73
2024/01/28 10:50:08;;;;;;;7.00;5.03;;;;;;;0.39;100.00;102523.25;5031219;28;20275;-70
2024/01/28 10:52:36;;;;;;;8.40;4.27;;;;;;;0.21;100.00;102485.44;5049649;28;20393;-72
2024/01/28 10:55:03;;;;;;;5.45;4.75;;;;;;;0.38;100.00;102507.59;5061888;28;20294;-72
2024/01/28 10:57:31;;;;;;;7.53;4.93;;;;;;;0.08;100.00;102464.97;5055741;28;20053;-70
2024/01/28 10:59:59;;;;;;;8.30;4.80;;;;;;;0.39;100.00;102507.53;5050116;28;20287;-68
2024/01/28 11:02:26;;;;;;;6.40;4.50;;;;;;;0.36;100.00;102502.41;5053834;28;20627;-72
2024/01/28 11:04:52;;;;;;;6.17;4.83;;;;;;;0.34;100.00;102495.50;5051505;28;20302;-68
2024/01/28 11:07:19;;;;;;;6.43;5.27;;;;;;;0.27;100.00;102474.75;5047487;28;20330;-66
2024/01/28 11:09:45;;;;;;;6.50;4.27;;;;;;;0.29;100.00;102486.06;5047401;28;20437;-67
2024/01/28 11:12:12;;;;;;;6.53;4.53;;;;;;;0.49;100.00;102500.19;5043637;28;20303;-69